地図

経路データ

SID SEASON NUMBER BASIN SUBBASIN NAME ISO_TIME NATURE LAT LON WMO_WIND WMO_PRES WMO_AGENCY TRACK_TYPE DIST2LAND LANDFALL IFLAG USA_AGENCY USA_ATCF_ID USA_LAT USA_LON USA_RECORD USA_STATUS USA_WIND USA_PRES USA_SSHS USA_R34_NE USA_R34_SE USA_R34_SW USA_R34_NW USA_R50_NE USA_R50_SE USA_R50_SW USA_R50_NW USA_R64_NE USA_R64_SE USA_R64_SW USA_R64_NW USA_POCI USA_ROCI USA_RMW USA_EYE TOKYO_LAT TOKYO_LON TOKYO_GRADE TOKYO_WIND TOKYO_PRES TOKYO_R50_DIR TOKYO_R50_LONG TOKYO_R50_SHORT TOKYO_R30_DIR TOKYO_R30_LONG TOKYO_R30_SHORT TOKYO_LAND CMA_LAT CMA_LON CMA_CAT CMA_WIND CMA_PRES HKO_LAT HKO_LON HKO_CAT HKO_WIND HKO_PRES NEWDELHI_LAT NEWDELHI_LON NEWDELHI_GRADE NEWDELHI_WIND NEWDELHI_PRES NEWDELHI_CI NEWDELHI_DP NEWDELHI_POCI REUNION_LAT REUNION_LON REUNION_TYPE REUNION_WIND REUNION_PRES REUNION_TNUM REUNION_CI REUNION_RMW REUNION_R34_NE REUNION_R34_SE REUNION_R34_SW REUNION_R34_NW REUNION_R50_NE REUNION_R50_SE REUNION_R50_SW REUNION_R50_NW REUNION_R64_NE REUNION_R64_SE REUNION_R64_SW REUNION_R64_NW BOM_LAT BOM_LON BOM_TYPE BOM_WIND BOM_PRES BOM_TNUM BOM_CI BOM_RMW BOM_R34_NE BOM_R34_SE BOM_R34_SW BOM_R34_NW BOM_R50_NE BOM_R50_SE BOM_R50_SW BOM_R50_NW BOM_R64_NE BOM_R64_SE BOM_R64_SW BOM_R64_NW BOM_ROCI BOM_POCI BOM_EYE BOM_POS_METHOD BOM_PRES_METHOD NADI_LAT NADI_LON NADI_CAT NADI_WIND NADI_PRES WELLINGTON_LAT WELLINGTON_LON WELLINGTON_WIND WELLINGTON_PRES DS824_LAT DS824_LON DS824_STAGE DS824_WIND DS824_PRES TD9636_LAT TD9636_LON TD9636_STAGE TD9636_WIND TD9636_PRES TD9635_LAT TD9635_LON TD9635_WIND TD9635_PRES TD9635_ROCI NEUMANN_LAT NEUMANN_LON NEUMANN_CLASS NEUMANN_WIND NEUMANN_PRES MLC_LAT MLC_LON MLC_CLASS MLC_WIND MLC_PRES USA_GUST BOM_GUST BOM_GUST_PER REUNION_GUST REUNION_GUST_PER USA_SEAHGT USA_SEARAD_NE USA_SEARAD_SE USA_SEARAD_SW USA_SEARAD_NW STORM_SPEED STORM_DIR
1960223N23136 1960 50 WP MM WENDY 1960-08-10 00:00:00 TS 22.5000 136.000 main 1084 1079 __O___________ -1 22.5000 136.000 0 19 1002 9 69
1960223N23136 1960 50 WP MM WENDY 1960-08-10 03:00:00 TS 22.6653 136.463 main 1090 1090 __P___________ -1 22.6653 136.463 0 24 1001 10 70
1960223N23136 1960 50 WP MM WENDY 1960-08-10 06:00:00 TS 22.8500 137.050 1000 tokyo main 1103 1084 _OO___________ -1 22.7000 137.500 2 1000 0 0 0 22.9000 136.900 1 29 1000 10 55
1960223N23136 1960 50 WP MM WENDY 1960-08-10 09:00:00 TS 23.2366 137.351 main 1090 1057 _PP___________ -1 23.2000 137.505 2 998 0 0 23.2550 137.275 1 38 998 9 27
1960223N23136 1960 50 WP MM WENDY 1960-08-10 12:00:00 TS 23.6636 137.500 996 tokyo main 1048 1011 OOO______OOO__ jtwc_wp WP111960 23.6000 137.500 40 0 23.7000 137.500 9 996 0 0 0 23.7000 137.500 3 48 996 23.6000 137.500 TC 40 23.6000 137.500 2 40 23.6000 137.500 40 1000 60 9 11
1960223N23136 1960 50 WP MM WENDY 1960-08-10 15:00:00 TS 24.1420 137.536 main 1011 966 PPP______PPP__ WP111960 24.0901 137.585 45 0 24.2000 137.472 9 996 0 0 24.1849 137.518 3 48 996 24.0901 137.585 TC 45 24.0957 137.556 2 43 24.0901 137.585 45 999 90 10 2
1960223N23136 1960 50 WP MM WENDY 1960-08-10 18:00:00 TS 24.6405 137.514 996 tokyo main 966 915 OOO______OPO__ jtwc_wp WP111960 24.6000 137.600 50 0 24.7000 137.400 9 996 0 0 0 24.7000 137.400 3 48 996 24.6000 137.600 TC 50 24.6031 137.560 2 47 24.6000 137.600 50 999 120 10 354
1960223N23136 1960 50 WP MM WENDY 1960-08-10 21:00:00 TS 25.1575 137.426 main 907 851 PPP______PPP__ WP111960 25.1423 137.482 52 0 25.1922 137.324 9 996 0 0 25.1922 137.324 3 53 996 25.1423 137.482 TC 52 25.1341 137.460 2 51 25.1423 137.482 52 997 150 11 344
1960223N23136 1960 50 WP MM WENDY 1960-08-11 00:00:00 TS 25.7000 137.167 996 tokyo main 851 776 OOO______OOO__ jtwc_wp WP111960 25.7000 137.200 55 0 25.7000 137.100 9 996 0 0 0 25.7000 137.100 3 58 996 25.7000 137.200 TC 55 25.7000 137.200 2 55 25.7000 137.200 55 995 180 13 329
1960223N23136 1960 50 WP MM WENDY 1960-08-11 03:00:00 TS 26.2389 136.705 main 776 693 PPP______PPP__ WP111960 26.2126 136.752 57 0 26.2428 136.610 9 996 0 0 26.2428 136.610 3 58 996 26.2126 136.752 TC 57 26.3097 136.751 2 58 26.2126 136.752 58 989 210 15 321
1960223N23136 1960 50 WP MM WENDY 1960-08-11 06:00:00 TS 26.8272 136.131 996 tokyo main 686 595 OOO______OPO__ jtwc_wp WP111960 26.8000 136.200 60 0 26.8000 136.000 9 996 0 0 0 26.8000 136.000 3 58 996 26.8000 136.200 TC 60 26.9634 136.186 2 61 26.8000 136.200 62 983 240 16 320
1960223N23136 1960 50 WP MM WENDY 1960-08-11 09:00:00 TS 27.4894 135.548 main 588 504 PPP______PPP__ WP111960 27.5403 135.620 65 1 27.3277 135.412 9 996 0 0 27.3277 135.412 3 58 996 27.5403 135.620 TC 65 27.6599 135.602 2 64 27.5403 135.620 65 980 210 17 325
1960223N23136 1960 50 WP MM WENDY 1960-08-11 12:00:00 TS 28.2333 135.033 996 tokyo main 497 414 OOO______OOO__ jtwc_wp WP111960 28.4000 135.100 70 1 27.9000 134.900 9 996 0 0 0 27.9000 134.900 3 58 996 28.4000 135.100 TC 70 28.4000 135.100 3 68 28.4000 135.100 68 977 180 18 334
1960223N23136 1960 50 WP MM WENDY 1960-08-11 15:00:00 TS 29.0702 134.672 main 407 340 PPP______PPP__ WP111960 29.3648 134.725 70 1 28.5548 134.518 9 996 0 0 28.5548 134.532 3 63 995 29.3648 134.725 TC 70 29.2171 134.806 3 69 29.3648 134.725 70 975 150 18 343
1960223N23136 1960 50 WP MM WENDY 1960-08-11 18:00:00 TS 29.9285 134.452 996 tokyo main 340 259 OOO______OPO__ jtwc_wp WP111960 30.3000 134.500 70 1 29.3000 134.300 9 996 0 0 0 29.3000 134.300 4 68 994 30.3000 134.500 TC 70 30.0710 134.612 3 71 30.3000 134.500 72 974 120 17 351
1960223N23136 1960 50 WP MM WENDY 1960-08-11 21:00:00 TS 30.7248 134.364 main 259 189 PPP______PPP__ WP111960 31.0598 134.419 72 1 30.1274 134.276 9 996 0 0 30.1274 134.162 4 68 994 31.0598 134.419 TC 72 30.9145 134.488 3 73 31.0598 134.419 73 973 120 15 356
1960223N23136 1960 50 WP MM WENDY 1960-08-12 00:00:00 TS 31.4667 134.333 996 tokyo main 181 122 OOO______OOO__ jtwc_wp WP111960 31.7000 134.400 75 1 31.0000 134.300 9 996 0 0 0 31.0000 134.100 4 68 994 31.7000 134.400 TC 75 31.7000 134.400 4 75 31.7000 134.400 75 972 120 14 354
1960223N23136 1960 50 WP MM WENDY 1960-08-12 03:00:00 TS 32.1367 134.194 main 122 56 PPP______PPP__ WP111960 32.2575 134.300 72 1 31.8651 134.129 9 993 0 0 31.8649 133.991 4 68 992 32.2575 134.300 TC 72 32.3180 134.146 4 69 32.2575 134.300 73 974 120 13 351
1960223N23136 1960 50 WP MM WENDY 1960-08-12 06:00:00 TS 32.7802 134.090 990 tokyo main 45 0 OOO______OPO__ jtwc_wp WP111960 32.8000 134.200 70 1 32.7000 134.000 9 990 0 0 0 32.7000 134.000 4 68 990 32.8000 134.200 TC 70 32.8811 133.942 4 63 32.8000 134.200 72 977 120 13 355
1960223N23136 1960 50 WP MM WENDY 1960-08-12 09:00:00 TS 33.4367 134.069 main 0 0 PPP______PPP__ WP111960 33.4123 134.077 60 0 33.4646 134.053 9 994 0 0 33.4651 134.239 4 58 994 33.4123 134.077 TC 60 33.4537 133.891 4 57 33.4123 134.077 62 981 120 14 5
1960223N23136 1960 50 WP MM WENDY 1960-08-12 12:00:00 TS 34.1333 134.217 998 tokyo main 0 0 OOO______OOO__ jtwc_wp WP111960 34.1000 134.100 50 0 34.2000 134.300 9 998 0 0 0 34.2000 134.600 3 48 998 34.1000 134.100 TC 50 34.1000 134.100 2 52 34.1000 134.100 52 985 120 15 14
1960223N23136 1960 50 WP MM WENDY 1960-08-12 15:00:00 TS 34.8791 134.493 main 0 0 PPP______PPP__ WP111960 34.8525 134.287 47 0 34.9257 134.639 9 1000 0 0 34.9253 134.813 3 43 1000 34.8525 134.287 TC 47 34.8662 134.647 2 50 34.8525 134.287 48 987 120 17 25
1960223N23136 1960 50 WP MM WENDY 1960-08-12 18:00:00 TS 35.7040 135.116 1002 tokyo main 0 0 OOO______OPO__ jtwc_wp WP111960 35.7000 134.900 45 0 35.7000 135.300 9 1002 0 0 0 35.7000 135.300 2 38 1002 35.7000 134.900 TC 45 35.7307 135.486 2 48 35.7000 134.900 45 990 120 23 39
1960223N23136 1960 50 WP MM WENDY 1960-08-12 21:00:00 TS 36.6543 136.236 main 34 0 PPP______PPP__ WP111960 36.6732 136.102 45 0 36.6366 136.367 9 1003 0 0 36.6151 136.360 2 33 1003 36.6732 136.102 TC 45 36.6546 136.532 2 46 36.6732 136.102 45 992 150 28 49
1960223N23136 1960 50 WP MM WENDY 1960-08-13 00:00:00 MX 37.5556 137.744 1004 tokyo main 49 11 OOO______OOO__ jtwc_wp WP111960 37.6000 137.700 45 0 37.5000 137.800 9 1004 0 0 0 37.5000 137.800 9 29 1004 37.6000 137.700 TC 45 37.6000 137.700 2 45 37.6000 137.700 45 995 180 29 58
1960223N23136 1960 50 WP MM WENDY 1960-08-13 03:00:00 MX 38.1954 139.347 main 14 0 PPP______P_P__ WP111960 38.3211 139.388 45 0 38.0101 139.339 9 1005 0 0 38.1922 139.292 9 29 1005 38.3211 139.388 TC 45 2 38.3211 139.388 45 996 180 29 66
1960223N23136 1960 50 WP MM WENDY 1960-08-13 06:00:00 MX 38.7182 141.100 1006 tokyo main 0 0 OOO______O_O__ jtwc_wp WP111960 38.9000 141.100 45 0 38.5000 141.200 6 1006 0 0 0 38.8000 141.000 9 29 1006 38.9000 141.100 TC 45 2 38.9000 141.100 45 998 180 33 68
1960223N23136 1960 50 WP MM WENDY 1960-08-13 09:00:00 ET 39.4141 143.284 main 103 103 _PP___________ WP111960 -1 39.3609 143.623 6 1006 0 0 39.4672 142.945 9 29 1006 TC 2 36 69
1960223N23136 1960 50 WP MM WENDY 1960-08-13 12:00:00 ET 40.0500 145.500 1006 tokyo main 277 283 _OO___________ -1 40.1000 146.000 6 1006 0 0 0 40.0000 145.000 9 29 1006 32 74
1960223N23136 1960 50 WP MM WENDY 1960-08-13 15:00:00 ET 40.2799 147.307 main 355 355 _PP___________ -1 40.3158 147.589 6 1006 0 0 40.2440 147.024 9 29 1006 26 82
1960223N23136 1960 50 WP MM WENDY 1960-08-13 18:00:00 ET 40.4000 148.900 1006 tokyo main 419 419 _OO___________ -1 40.4000 148.900 6 1006 0 0 0 40.4000 148.900 9 29 1006 24 81
1960223N23136 1960 50 WP MM WENDY 1960-08-13 21:00:00 ET 40.6635 150.481 main 496 496 _PP___________ -1 40.6464 150.444 6 1003 0 0 40.6806 150.518 9 29 1003 24 76
1960223N23136 1960 50 WP MM WENDY 1960-08-14 00:00:00 ET 41.0000 152.000 1000 tokyo main 543 539 _OO___________ -1 41.0000 152.000 6 1000 0 0 0 41.0000 152.000 9 29 1000 23 71
1960223N23136 1960 50 WP MM WENDY 1960-08-14 03:00:00 ET 41.4245 153.431 main 553 552 _PP___________ -1 41.5395 153.428 6 1000 0 0 41.3095 153.434 9 29 1000 24 70
1960223N23136 1960 50 WP MM WENDY 1960-08-14 06:00:00 ET 41.8000 155.000 1000 tokyo main 597 597 _OO___________ -1 42.0000 155.000 6 1000 0 0 0 41.6000 155.000 9 29 1000 25 78
1960223N23136 1960 50 WP MM WENDY 1960-08-14 09:00:00 ET 41.9496 156.764 main 689 688 _PP___________ -1 42.0646 156.767 6 1001 0 0 41.8347 156.761 9 29 1001 30 86
1960223N23136 1960 50 WP MM WENDY 1960-08-14 12:00:00 ET 42.0000 159.000 1002 tokyo main 821 821 _OO___________ -1 42.0000 159.000 6 1002 0 0 0 42.0000 159.000 9 29 1002 38 90
1960223N23136 1960 50 WP MM WENDY 1960-08-14 15:00:00 ET 41.9475 161.905 main 1027 1027 _PP___________ -1 41.9325 161.903 6 1003 0 0 41.9624 161.906 9 29 1003 46 90
1960223N23136 1960 50 WP MM WENDY 1960-08-14 18:00:00 ET 42.0000 165.200 1004 tokyo main 1155 1155 _OO___________ -1 42.0000 165.200 6 1004 0 0 0 42.0000 165.200 9 29 1004 52 85
1960223N23136 1960 50 WP MM WENDY 1960-08-14 21:00:00 ET 42.4453 168.894 main 1313 1313 _PP___________ -1 42.4453 168.894 6 1004 0 0 42.4453 168.894 9 29 1004 51 80
1960223N23136 1960 50 WP MM WENDY 1960-08-15 00:00:00 ET 42.9000 172.000 1004 tokyo main 1429 1429 _OO___________ -1 42.9000 172.000 6 1004 0 0 0 42.9000 172.000 9 29 1004 33 80
1960223N23136 1960 50 WP MM WENDY 1960-08-15 03:00:00 ET 43.0463 173.368 main 1487 1478 _PP___________ -1 43.0463 173.368 6 1004 0 0 43.0463 173.368 9 29 1004 15 78
1960223N23136 1960 50 WP MM WENDY 1960-08-15 06:00:00 ET 43.2000 174.000 1004 tokyo main 1498 1498 _OO___________ -1 43.2000 174.000 6 1004 0 0 0 43.2000 174.000 9 29 1004 13 67
1960223N23136 1960 50 WP MM WENDY 1960-08-15 09:00:00 ET 43.5489 174.991 main 1523 1493 _PP___________ -1 43.5489 174.991 6 1004 0 0 43.5489 174.991 9 29 1004 16 64
1960223N23136 1960 50 WP MM WENDY 1960-08-15 12:00:00 ET 43.9000 176.000 1004 tokyo main 1487 1417 _OO___________ -1 43.9000 176.000 6 1004 0 0 0 43.9000 176.000 9 29 1004 16 69
1960223N23136 1960 50 WP MM WENDY 1960-08-15 15:00:00 ET 44.1021 177.041 main 1417 1357 _PP___________ -1 44.1021 177.041 6 1005 0 0 44.1021 177.041 9 24 1005 15 79
1960223N23136 1960 50 WP MM WENDY 1960-08-15 18:00:00 ET 44.2000 178.100 1006 tokyo main 1352 _OO___________ -1 44.2000 178.100 6 1006 0 0 0 44.2000 178.100 9 19 1006 15 83

デジタル台風データ・検索

IBTrACS Databaseについて

本データベースは、米国NOAAが公開する1842年以降の世界の熱帯低気圧のベストトラックデータアーカイブInternational Best Track Archive for Climate Stewardship (IBTrACS)を、ウェブで閲覧しやすい形式に変換したものです。

最終更新日:2021-10-21